createdAt,value
2023-02-12T00:00:10.408Z,69.46
2023-02-12T00:05:33.481Z,69.67
2023-02-12T00:10:41.138Z,69.36
2023-02-12T00:15:44.174Z,68.88
2023-02-12T00:20:46.920Z,68.35
2023-02-12T00:25:49.696Z,68.12
2023-02-12T00:30:52.924Z,67.35
2023-02-12T00:35:57.455Z,67.31
2023-02-12T00:41:00.908Z,66.76
2023-02-12T00:46:05.347Z,66.56
2023-02-12T00:51:09.135Z,66.79
2023-02-12T00:56:11.873Z,66.76
2023-02-12T01:01:14.806Z,66.75
2023-02-12T01:06:17.632Z,66.62
2023-02-12T01:11:20.860Z,66.38
2023-02-12T01:16:24.553Z,65.65
2023-02-12T01:21:30.780Z,65.18
2023-02-12T01:26:33.579Z,64.20
2023-02-12T01:31:38.717Z,64.24
2023-02-12T01:36:41.614Z,64.94
2023-02-12T01:41:46.047Z,65.29
2023-02-12T01:46:55.068Z,65.33
2023-02-12T01:52:07.421Z,65.72
2023-02-12T01:57:14.008Z,66.12
2023-02-12T02:02:17.729Z,66.47
2023-02-12T02:07:20.751Z,67.01
2023-02-12T02:12:44.032Z,67.21
2023-02-12T02:17:58.715Z,67.01
2023-02-12T02:23:23.185Z,67.07
2023-02-12T02:28:40.981Z,67.33
2023-02-12T02:34:06.261Z,67.73
2023-02-12T02:39:25.790Z,68.14
2023-02-12T02:44:35.579Z,68.61
2023-02-12T02:49:50.334Z,68.67
2023-02-12T02:54:58.451Z,68.86
2023-02-12T03:00:09.376Z,69.14
2023-02-12T03:05:31.513Z,69.45
2023-02-12T03:10:40.757Z,69.94
2023-02-12T03:15:47.464Z,70.26
2023-02-12T03:21:01.021Z,70.18
2023-02-12T03:26:32.480Z,70.40
2023-02-12T03:32:01.093Z,70.90
2023-02-12T03:37:22.561Z,71.24
2023-02-12T03:42:41.524Z,71.27
2023-02-12T03:47:49.241Z,71.64
2023-02-12T03:52:52.145Z,71.93
2023-02-12T03:58:01.372Z,72.24
2023-02-12T04:03:05.397Z,72.05
2023-02-12T04:08:11.314Z,72.32
2023-02-12T04:13:25.670Z,72.03
2023-02-12T04:18:42.080Z,72.02
2023-02-12T04:24:06.901Z,72.30
2023-02-12T04:29:24.966Z,72.93
2023-02-12T04:34:38.622Z,72.79
2023-02-12T04:39:42.802Z,72.87
2023-02-12T04:44:45.619Z,73.32
2023-02-12T04:49:48.572Z,73.45
2023-02-12T04:54:51.349Z,73.79
2023-02-12T04:59:54.560Z,73.83
2023-02-12T05:04:57.277Z,73.78
2023-02-12T05:10:00.418Z,74.16
2023-02-12T05:15:03.270Z,75.02
2023-02-12T05:20:07.021Z,74.97
2023-02-12T05:25:10.188Z,74.84
2023-02-12T05:30:13.648Z,75.18
2023-02-12T05:35:16.541Z,74.80
2023-02-12T05:40:19.447Z,74.65
2023-02-12T05:45:27.935Z,74.79
2023-02-12T05:50:30.675Z,74.48
2023-02-12T05:55:33.582Z,73.97
2023-02-12T06:00:36.786Z,73.88
2023-02-12T06:05:39.573Z,73.95
2023-02-12T06:10:42.395Z,74.41
2023-02-12T06:15:45.228Z,74.68
2023-02-12T06:20:48.409Z,75.00
2023-02-12T06:25:56.163Z,75.38
2023-02-12T06:30:59.198Z,75.74
2023-02-12T06:36:04.759Z,72.35
2023-02-12T06:41:07.506Z,69.33
2023-02-12T06:46:11.173Z,69.66
2023-02-12T06:51:16.796Z,67.85
2023-02-12T06:56:21.336Z,63.75
2023-02-12T07:01:27.821Z,59.25
2023-02-12T07:06:33.914Z,67.02
2023-02-12T07:11:38.347Z,67.69
2023-02-12T07:16:42.196Z,68.20
2023-02-12T07:21:45.077Z,68.14
2023-02-12T07:26:48.181Z,67.74
2023-02-12T07:31:50.969Z,64.90
2023-02-12T07:36:53.888Z,63.91
2023-02-12T07:41:57.904Z,63.43
2023-02-12T07:47:00.733Z,44.59
2023-02-12T07:52:03.522Z,58.35
2023-02-12T07:57:06.201Z,52.20
2023-02-12T08:02:09.702Z,50.60
2023-02-12T08:07:12.651Z,45.52
2023-02-12T08:12:15.478Z,48.47
2023-02-12T08:17:18.129Z,47.90
2023-02-12T08:22:20.843Z,47.46
2023-02-12T08:27:23.507Z,43.91
2023-02-12T08:32:26.245Z,43.56
2023-02-12T08:37:28.924Z,43.79
2023-02-12T08:42:31.744Z,41.77
2023-02-12T08:47:34.425Z,40.15
2023-02-12T08:52:37.150Z,41.19
2023-02-12T08:57:39.938Z,40.46
2023-02-12T09:02:42.668Z,42.08
2023-02-12T09:07:45.535Z,40.81
2023-02-12T09:12:48.579Z,39.38
2023-02-12T09:17:51.347Z,42.34
2023-02-12T09:22:55.176Z,43.55
2023-02-12T09:27:57.986Z,44.34
2023-02-12T09:33:00.781Z,44.99
2023-02-12T09:38:04.507Z,44.26
2023-02-12T09:43:12.364Z,45.30
2023-02-12T09:48:30.673Z,44.88
2023-02-12T09:53:38.252Z,43.00
2023-02-12T09:58:55.330Z,43.22
2023-02-12T10:03:58.468Z,42.99
2023-02-12T10:09:18.573Z,43.51
2023-02-12T10:14:55.427Z,44.39
2023-02-12T10:20:25.415Z,45.89
2023-02-12T10:25:46.508Z,47.64
2023-02-12T10:31:02.222Z,49.02
2023-02-12T10:36:18.862Z,50.21
2023-02-12T10:41:24.736Z,50.73
2023-02-12T10:46:30.575Z,51.08
2023-02-12T10:51:59.305Z,51.67
2023-02-12T10:57:10.433Z,52.57
2023-02-12T11:02:22.967Z,53.94
2023-02-12T11:07:28.007Z,52.83
2023-02-12T11:12:36.629Z,51.55
2023-02-12T11:17:42.577Z,49.50
2023-02-12T11:23:01.840Z,49.28
2023-02-12T11:28:20.627Z,49.45
2023-02-12T11:33:31.437Z,50.72
2023-02-12T11:38:40.419Z,51.62
2023-02-12T11:43:43.215Z,52.51
2023-02-12T11:48:47.534Z,52.43
2023-02-12T11:53:56.599Z,52.28
2023-02-12T11:59:09.848Z,50.30
2023-02-12T12:04:16.555Z,49.73
2023-02-12T12:09:26.822Z,48.65
2023-02-12T12:14:55.928Z,47.29
2023-02-12T12:20:20.056Z,46.94
2023-02-12T12:25:29.398Z,47.55
2023-02-12T12:30:43.998Z,49.24
2023-02-12T12:36:14.785Z,50.04
2023-02-12T12:41:30.245Z,49.89
2023-02-12T12:47:01.475Z,49.28
2023-02-12T12:52:18.019Z,47.54
2023-02-12T12:57:39.720Z,46.88
2023-02-12T13:03:19.264Z,45.97
2023-02-12T13:08:39.490Z,45.84
2023-02-12T13:13:46.849Z,46.20
2023-02-12T13:19:15.972Z,47.72
2023-02-12T13:24:55.994Z,49.23
2023-02-12T13:30:11.422Z,50.38
2023-02-12T13:35:20.004Z,50.37
2023-02-12T13:40:28.412Z,49.59
2023-02-12T13:45:34.094Z,49.30
2023-02-12T13:50:55.291Z,50.05
2023-02-12T13:56:21.169Z,51.16
2023-02-12T14:01:39.546Z,51.51
2023-02-12T14:06:59.812Z,52.15
2023-02-12T14:12:12.565Z,53.12
2023-02-12T14:17:33.504Z,54.84
2023-02-12T14:23:20.566Z,57.26
2023-02-12T14:28:34.467Z,60.09
2023-02-12T14:33:37.681Z,62.15
2023-02-12T14:38:47.485Z,63.80
2023-02-12T14:44:02.854Z,63.58
2023-02-12T14:49:06.276Z,63.76
2023-02-12T14:54:20.758Z,64.50
2023-02-12T14:59:26.185Z,66.03
2023-02-12T15:04:33.780Z,66.39
2023-02-12T15:09:46.585Z,66.78
2023-02-12T15:15:00.202Z,67.84
2023-02-12T15:20:08.308Z,68.12
2023-02-12T15:25:24.641Z,69.79
2023-02-12T15:30:32.203Z,70.25
2023-02-12T15:35:39.830Z,70.49
2023-02-12T15:40:55.202Z,70.64
2023-02-12T15:45:58.550Z,71.01
2023-02-12T15:51:26.185Z,71.60
2023-02-12T15:56:29.336Z,70.83
2023-02-12T16:01:35.379Z,71.10
2023-02-12T16:06:38.285Z,71.92
2023-02-12T16:11:44.400Z,72.76
2023-02-12T16:16:51.580Z,71.85
2023-02-12T16:22:07.487Z,70.99
2023-02-12T16:27:23.014Z,69.52
2023-02-12T16:32:29.242Z,70.78
2023-02-12T16:37:43.995Z,71.42
2023-02-12T16:42:46.635Z,73.28
2023-02-12T16:47:51.495Z,73.22
2023-02-12T16:53:03.004Z,73.03
2023-02-12T16:58:06.109Z,73.61
2023-02-12T17:03:16.327Z,75.21
2023-02-12T17:08:22.582Z,74.62
2023-02-12T17:13:25.378Z,74.31
2023-02-12T17:18:28.726Z,74.08
2023-02-12T17:23:31.796Z,74.90
2023-02-12T17:28:34.613Z,73.95
2023-02-12T17:33:37.912Z,74.07
2023-02-12T17:38:41.543Z,75.49
2023-02-12T17:43:44.649Z,76.89
2023-02-12T17:48:48.247Z,75.05
2023-02-12T17:53:51.293Z,75.83
2023-02-12T17:58:54.366Z,76.46
2023-02-12T18:04:00.133Z,77.35
2023-02-12T18:09:03.978Z,77.83
2023-02-12T18:14:06.775Z,77.57
2023-02-12T18:19:09.483Z,77.85
2023-02-12T18:24:12.151Z,77.32
2023-02-12T18:29:14.855Z,77.24
2023-02-12T18:34:17.682Z,77.71
2023-02-12T18:39:20.984Z,77.34
2023-02-12T18:44:23.787Z,77.41
2023-02-12T18:49:28.432Z,77.60
2023-02-12T18:54:31.232Z,77.09
2023-02-12T18:59:34.038Z,77.75
2023-02-12T19:04:36.914Z,77.38
2023-02-12T19:09:39.685Z,77.50
2023-02-12T19:14:42.435Z,77.46
2023-02-12T19:19:45.141Z,77.58
2023-02-12T19:24:51.492Z,77.58
2023-02-12T19:29:54.228Z,77.41
2023-02-12T19:34:57.123Z,77.59
2023-02-12T19:40:00.031Z,77.70
2023-02-12T19:45:02.742Z,78.35
2023-02-12T19:50:06.436Z,79.02
2023-02-12T19:55:09.084Z,78.91
2023-02-12T20:00:12.912Z,78.76
2023-02-12T20:05:15.766Z,79.13
2023-02-12T20:10:18.590Z,79.56
2023-02-12T20:15:21.488Z,79.31
2023-02-12T20:20:24.221Z,79.47
2023-02-12T20:25:27.348Z,79.56
2023-02-12T20:30:30.306Z,79.16
2023-02-12T20:35:33.101Z,79.11
2023-02-12T20:40:35.884Z,78.97
2023-02-12T20:45:38.566Z,79.20
2023-02-12T20:50:41.302Z,79.38
2023-02-12T20:55:43.995Z,79.25
2023-02-12T21:00:46.897Z,79.33
2023-02-12T21:05:49.704Z,79.24
2023-02-12T21:11:01.010Z,78.99
2023-02-12T21:16:12.473Z,79.14
2023-02-12T21:21:18.042Z,79.05
2023-02-12T21:26:24.291Z,78.99
2023-02-12T21:31:31.531Z,79.32
2023-02-12T21:36:37.124Z,79.14
2023-02-12T21:41:42.690Z,78.99
2023-02-12T21:46:46.609Z,79.17
2023-02-12T21:51:49.417Z,79.32
2023-02-12T21:56:52.205Z,79.11
2023-02-12T22:01:58.131Z,78.91
2023-02-12T22:07:03.507Z,78.82
2023-02-12T22:12:06.772Z,78.99
2023-02-12T22:17:09.565Z,79.25
2023-02-12T22:22:12.243Z,79.50
2023-02-12T22:27:15.272Z,79.41
2023-02-12T22:32:18.031Z,79.57
2023-02-12T22:37:20.871Z,79.28
2023-02-12T22:42:23.571Z,79.46
2023-02-12T22:47:26.292Z,79.47
2023-02-12T22:52:28.982Z,79.33
2023-02-12T22:57:31.664Z,79.38
2023-02-12T23:02:34.367Z,79.14
2023-02-12T23:07:37.559Z,79.03
2023-02-12T23:12:40.373Z,78.84
2023-02-12T23:17:43.124Z,78.72
2023-02-12T23:22:45.843Z,78.69
2023-02-12T23:27:48.592Z,78.76
2023-02-12T23:32:51.308Z,78.89
2023-02-12T23:37:54.203Z,78.88
2023-02-12T23:42:57.002Z,79.16
2023-02-12T23:47:59.725Z,79.28
2023-02-12T23:53:03.328Z,79.18
2023-02-12T23:58:07.065Z,79.30
